Leyden, New York
Current Conditions -  °F | °C
As of 7:53 PM on Saturday 22 Nov 2014 (Local Time) from KRME Reporting Station
Light Rain Light Rain  
Wind Chill: 29°   Ceiling: 2200
Heat Index: 35°   Visibility: 10mi
Dew Point: 32°   Wind: 8mph
Humidity: 89%   Direction: 90°E
Pressure: 30.05"   Gusts: NA
Location:  43.6044°N, 75.2344°W
Report Text: KRME 230053Z 09007KT 10SM -RA OVC022 02/00 A3005 RMK AO2 SLP180 P0002 T00170000
Loading
Personal Weather Stations






























Interactive Weather Map New forecast layout! Learn more

10-Day Weather Forecast

Advertisements
Track Severe Weather on mobile